Time;durP1;ratioP1;P1;durP2;ratioP2;P2;SDS_P1;SDS_P2;PMS_P1;PMS_P2;Temp;Humidity;BMP_temperature;BMP_pressure;BME280_temperature;BME280_humidity;BME280_pressure;Samples;Min_cycle;Max_cycle;Signal;HPM_P1;HPM_P2
2023/04/29 00:03:02;;;;;;;7.85;5.10;;;;;;;19.44;39.66;101424.25;16116822;19;131467;-37
2023/04/29 00:08:25;;;;;;;6.97;4.53;;;;;;;19.44;40.14;101429.81;16114177;19;130455;-46
2023/04/29 00:13:47;;;;;;;8.68;5.32;;;;;;;19.42;39.53;101427.25;16115271;19;134094;-46
2023/04/29 00:19:10;;;;;;;8.43;5.10;;;;;;;19.42;39.68;101430.03;16112643;19;130309;-47
2023/04/29 00:24:32;;;;;;;8.43;5.50;;;;;;;19.40;39.52;101431.38;16113415;19;133777;-48
2023/04/29 00:29:54;;;;;;;9.32;5.45;;;;;;;19.37;39.67;101450.19;16116373;19;130114;-48
2023/04/29 00:35:16;;;;;;;9.57;6.13;;;;;;;19.35;39.58;101444.00;16141872;19;132701;-50
2023/04/29 00:40:38;;;;;;;10.93;5.80;;;;;;;19.33;39.11;101451.72;16134087;19;129300;-47
2023/04/29 00:46:00;;;;;;;10.50;6.30;;;;;;;19.31;39.49;101465.00;16111663;19;130216;-47
2023/04/29 00:51:22;;;;;;;8.85;6.38;;;;;;;19.29;39.20;101456.09;16106193;19;130679;-47
2023/04/29 00:56:45;;;;;;;10.00;6.18;;;;;;;19.29;39.09;101461.63;16111123;19;131456;-47
2023/04/29 01:02:07;;;;;;;10.80;6.22;;;;;;;19.29;38.92;101464.41;16109979;19;131564;-48
2023/04/29 01:07:36;;;;;;;10.32;6.40;;;;;;;19.27;38.95;101463.78;16107034;19;130271;-48
2023/04/29 01:13:11;;;;;;;8.60;5.90;;;;;;;19.27;39.08;101474.03;16109522;19;130513;-47
2023/04/29 01:18:40;;;;;;;9.33;6.07;;;;;;;19.25;39.07;101481.75;16110751;19;130435;-48
2023/04/29 01:24:01;;;;;;;10.20;5.93;;;;;;;19.23;39.08;101487.53;16109105;19;130484;-48
2023/04/29 01:29:50;;;;;;;8.50;5.55;;;;;;;19.22;38.61;101489.47;16109638;19;129419;-47
2023/04/29 01:35:52;;;;;;;8.02;6.05;;;;;;;19.20;38.61;101491.59;16117746;19;129875;-48
2023/04/29 01:41:27;;;;;;;9.15;6.07;;;;;;;19.18;38.69;101499.31;16121752;19;129880;-47
2023/04/29 01:46:53;;;;;;;11.38;6.40;;;;;;;19.16;38.61;101495.09;16122743;19;131208;-48
2023/04/29 01:52:15;;;;;;;10.65;7.20;;;;;;;19.14;38.65;101509.16;16121978;19;129241;-47
2023/04/29 01:57:36;;;;;;;11.43;7.13;;;;;;;19.12;38.52;101502.19;16121194;19;130012;-48
2023/04/29 02:02:58;;;;;;;10.50;7.28;;;;;;;19.11;38.66;101506.88;16122445;19;129908;-48
2023/04/29 02:08:21;;;;;;;8.55;6.22;;;;;;;19.10;38.67;101524.59;16121917;19;129244;-48
2023/04/29 02:13:43;;;;;;;9.48;6.35;;;;;;;19.10;38.58;101518.19;16121133;19;129629;-48
2023/04/29 02:19:05;;;;;;;8.90;6.00;;;;;;;19.10;38.24;101515.44;16120145;19;131100;-47
2023/04/29 02:24:26;;;;;;;10.73;6.90;;;;;;;19.09;38.69;101528.47;16122008;19;134029;-47
2023/04/29 02:29:50;;;;;;;10.85;6.80;;;;;;;19.08;38.27;101538.69;16121452;19;129002;-48
2023/04/29 02:35:12;;;;;;;10.13;7.50;;;;;;;19.07;38.31;101533.38;16116932;19;132149;-47
2023/04/29 02:40:39;;;;;;;12.02;7.18;;;;;;;19.05;38.20;101544.72;16121330;19;129616;-47
2023/04/29 02:46:01;;;;;;;10.02;7.53;;;;;;;19.04;38.49;101554.13;16109010;19;129832;-47
2023/04/29 02:51:23;;;;;;;12.52;6.80;;;;;;;19.04;38.14;101556.91;16119665;19;129210;-48
2023/04/29 02:56:45;;;;;;;8.73;6.88;;;;;;;19.03;38.06;101554.34;16117868;19;130944;-48
2023/04/29 03:02:07;;;;;;;11.13;8.02;;;;;;;19.01;37.97;101567.63;16115674;19;129842;-39
2023/04/29 03:07:30;;;;;;;11.93;7.57;;;;;;;18.99;38.38;101567.84;16119309;19;130642;-38
2023/04/29 03:12:52;;;;;;;11.27;7.20;;;;;;;18.98;38.13;101568.06;16117890;19;135247;-38
2023/04/29 03:18:14;;;;;;;10.68;7.07;;;;;;;18.98;38.13;101571.69;16116543;19;131178;-39
2023/04/29 03:23:38;;;;;;;9.80;6.85;;;;;;;18.95;38.30;101572.19;16117919;19;130159;-38
2023/04/29 03:29:00;;;;;;;12.27;7.15;;;;;;;18.95;37.97;101579.63;16112542;19;129971;-39
2023/04/29 03:34:23;;;;;;;13.63;7.63;;;;;;;18.94;38.03;101581.56;16118824;19;132127;-38
2023/04/29 03:39:45;;;;;;;12.32;7.50;;;;;;;18.91;38.20;101582.03;16116065;19;130832;-38
2023/04/29 03:45:07;;;;;;;14.55;8.60;;;;;;;18.90;38.05;101580.34;16117485;19;134592;-38
2023/04/29 03:50:29;;;;;;;13.70;7.85;;;;;;;18.89;38.15;101581.41;16116167;19;130467;-38
2023/04/29 03:55:51;;;;;;;12.55;7.57;;;;;;;18.89;37.84;101585.00;16112860;19;130569;-38
2023/04/29 04:01:14;;;;;;;13.60;7.50;;;;;;;18.87;37.80;101583.56;16111825;19;129955;-38
2023/04/29 04:06:36;;;;;;;15.27;7.20;;;;;;;18.86;37.83;101602.13;16109019;19;131841;-38
2023/04/29 04:11:57;;;;;;;12.93;7.57;;;;;;;18.85;37.99;101602.34;16110404;19;131237;-38
2023/04/29 04:17:19;;;;;;;11.80;6.97;;;;;;;18.85;38.06;101610.66;16112404;19;129311;-38
2023/04/29 04:22:41;;;;;;;11.20;7.75;;;;;;;18.84;38.22;101611.72;16112860;19;131893;-38
2023/04/29 04:28:03;;;;;;;11.20;7.30;;;;;;;18.83;37.92;101618.38;16111316;19;130324;-38
2023/04/29 04:33:26;;;;;;;13.50;7.70;;;;;;;18.81;37.77;101629.69;16110644;19;129902;-38
2023/04/29 04:38:48;;;;;;;13.82;7.30;;;;;;;18.81;37.72;101637.16;16112430;19;130691;-37
2023/04/29 04:44:09;;;;;;;15.25;7.80;;;;;;;18.80;37.79;101644.63;16109020;19;131522;-38
2023/04/29 04:49:31;;;;;;;12.45;7.43;;;;;;;18.80;37.81;101652.09;16112516;19;129517;-38
2023/04/29 04:54:53;;;;;;;12.15;7.28;;;;;;;18.77;37.95;101673.66;16112224;19;129149;-37
2023/04/29 05:00:15;;;;;;;9.98;6.55;;;;;;;18.77;37.88;101678.34;16108208;19;129233;-37
2023/04/29 05:05:37;;;;;;;13.43;6.85;;;;;;;18.77;38.06;101679.19;16106064;19;130361;-37
2023/04/29 05:10:59;;;;;;;10.70;6.38;;;;;;;18.76;38.05;101685.00;16119184;19;129983;-37
2023/04/29 05:16:21;;;;;;;8.07;6.15;;;;;;;18.75;37.80;101684.13;16122457;19;130276;-37
2023/04/29 05:21:43;;;;;;;26.45;6.20;;;;;;;18.75;37.79;101695.22;16124031;19;130870;-37
2023/04/29 05:27:05;;;;;;;17.80;6.45;;;;;;;18.73;37.91;101697.34;16120352;19;130644;-36
2023/04/29 05:32:27;;;;;;;17.25;6.15;;;;;;;18.71;37.92;101702.28;16127715;19;133601;-39
2023/04/29 05:37:49;;;;;;;24.88;6.28;;;;;;;18.70;37.93;101708.91;16123648;19;130179;-37
2023/04/29 05:43:11;;;;;;;17.75;5.50;;;;;;;18.76;38.39;101719.09;16112526;19;130867;-38
2023/04/29 05:48:33;;;;;;;14.40;5.43;;;;;;;18.97;38.21;101725.25;16117854;19;130513;-37
2023/04/29 05:53:55;;;;;;;16.13;4.65;;;;;;;19.15;38.01;101721.66;16122496;19;129718;-36
2023/04/29 05:59:17;;;;;;;19.20;5.35;;;;;;;19.24;38.24;101732.50;16119916;19;130415;-37
2023/04/29 06:04:40;;;;;;;14.90;4.55;;;;;;;19.29;38.00;101743.75;16122500;19;130430;-37
2023/04/29 06:10:03;;;;;;;20.42;4.20;;;;;;;19.30;38.15;101751.84;16121521;19;129688;-35
2023/04/29 06:15:25;;;;;;;14.43;3.60;;;;;;;19.28;37.99;101765.09;16119768;19;130916;-37
2023/04/29 06:20:46;;;;;;;16.38;3.92;;;;;;;19.25;37.77;101768.31;16121797;19;131370;-37
2023/04/29 06:26:08;;;;;;;22.55;3.92;;;;;;;19.23;38.19;101770.47;16124704;19;129340;-39
2023/04/29 06:31:30;;;;;;;17.48;3.90;;;;;;;19.20;37.90;101776.47;16125977;19;129826;-42
2023/04/29 06:36:52;;;;;;;13.60;3.53;;;;;;;19.17;38.35;101782.47;16124828;19;129984;-38
2023/04/29 06:42:14;;;;;;;11.70;3.40;;;;;;;19.14;38.40;101780.97;16119263;19;129026;-40
2023/04/29 06:47:36;;;;;;;8.30;2.70;;;;;;;19.11;37.94;101787.00;16123758;19;129615;-39
2023/04/29 06:52:58;;;;;;;9.95;3.38;;;;;;;19.10;38.39;101803.84;16125284;19;130024;-41
2023/04/29 06:58:20;;;;;;;12.10;3.13;;;;;;;19.07;38.20;101806.03;16121871;19;129996;-45
2023/04/29 07:03:42;;;;;;;10.15;3.28;;;;;;;19.08;38.50;101806.88;16124974;19;131224;-43
2023/04/29 07:09:04;;;;;;;6.93;2.80;;;;;;;19.08;38.34;101816.03;16118435;19;130190;-43
2023/04/29 07:14:26;;;;;;;6.57;3.20;;;;;;;19.08;38.72;101821.56;16117465;19;130791;-44
2023/04/29 07:19:48;;;;;;;11.55;3.42;;;;;;;19.08;38.27;101820.75;16117678;19;130190;-38
2023/04/29 07:25:10;;;;;;;9.90;3.22;;;;;;;19.08;38.74;101831.84;16118382;19;130105;-39
2023/04/29 07:30:32;;;;;;;7.43;4.03;;;;;;;19.07;38.81;101838.47;16115561;19;129791;-39
2023/04/29 07:35:54;;;;;;;12.32;3.65;;;;;;;19.07;38.63;101842.09;16115794;19;129431;-42
2023/04/29 07:41:16;;;;;;;5.22;3.20;;;;;;;19.08;38.45;101849.31;16112887;19;129857;-44
2023/04/29 07:46:38;;;;;;;9.18;3.72;;;;;;;19.09;38.31;101855.72;16112061;19;130849;-37
2023/04/29 07:52:01;;;;;;;6.65;2.85;;;;;;;19.06;38.28;101854.25;16119091;19;131854;-41
2023/04/29 07:57:23;;;;;;;10.25;3.58;;;;;;;19.05;38.27;101857.25;16119320;19;129521;-43
2023/04/29 08:02:45;;;;;;;11.63;3.25;;;;;;;19.02;38.55;101866.00;16107700;19;131544;-39
2023/04/29 08:08:07;;;;;;;8.05;3.60;;;;;;;18.98;38.32;101862.84;16116607;19;133219;-38
2023/04/29 08:13:28;;;;;;;8.75;4.07;;;;;;;19.00;38.84;101874.56;16118889;19;131737;-38
2023/04/29 08:18:50;;;;;;;16.88;4.47;;;;;;;19.04;38.40;101870.28;16120574;19;130733;-46
2023/04/29 08:24:12;;;;;;;7.30;3.40;;;;;;;19.12;38.53;101865.50;16116728;19;130717;-38
2023/04/29 08:29:34;;;;;;;8.20;3.40;;;;;;;19.18;38.39;101868.22;16116533;19;130779;-38
2023/04/29 08:34:56;;;;;;;8.70;3.40;;;;;;;19.27;38.27;101868.81;16118697;19;129710;-38
2023/04/29 08:40:18;;;;;;;11.77;2.90;;;;;;;19.33;37.99;101872.59;16105874;19;129580;-38
2023/04/29 08:45:42;;;;;;;17.85;4.85;;;;;;;19.38;38.14;101876.41;16119341;19;132768;-37
2023/04/29 08:51:04;;;;;;;9.38;4.18;;;;;;;19.42;37.93;101871.22;16127649;19;130700;-38
2023/04/29 08:56:29;;;;;;;12.00;3.97;;;;;;;19.58;37.50;101889.22;16125661;19;130061;-39
2023/04/29 09:01:52;;;;;;;10.68;3.60;;;;;;;19.86;37.14;101887.00;16131452;19;129051;-38
2023/04/29 09:07:16;;;;;;;15.63;3.33;;;;;;;20.15;37.05;101893.75;16132505;19;129604;-38
2023/04/29 09:12:38;;;;;;;9.95;2.92;;;;;;;20.44;36.86;101893.97;16131400;19;129565;-39
2023/04/29 09:17:59;;;;;;;5.85;2.47;;;;;;;20.68;36.38;101891.28;16125179;19;129883;-38
2023/04/29 09:23:36;;;;;;;11.52;2.55;;;;;;;20.87;36.17;101901.31;16128704;19;130321;-37
2023/04/29 09:29:09;;;;;;;6.80;2.38;;;;;;;20.95;35.83;101902.91;16125494;19;131528;-37
2023/04/29 09:34:39;;;;;;;9.48;2.63;;;;;;;20.98;35.77;101909.91;16126310;19;130561;-39
2023/04/29 09:40:01;;;;;;;8.25;3.03;;;;;;;20.97;35.69;101919.34;16125002;19;130918;-38
2023/04/29 09:45:36;;;;;;;8.07;2.55;;;;;;;20.92;35.79;101922.84;16124343;19;130568;-37
2023/04/29 09:51:02;;;;;;;6.72;2.60;;;;;;;20.84;36.25;101928.75;16124189;19;131198;-37
2023/04/29 09:56:29;;;;;;;10.85;2.38;;;;;;;20.77;36.28;101928.84;16127062;19;132091;-37
2023/04/29 10:01:55;;;;;;;6.55;2.55;;;;;;;20.72;36.30;101934.22;16123666;19;130378;-37
2023/04/29 10:07:19;;;;;;;3.08;1.95;;;;;;;20.68;36.05;101931.06;16123583;19;129295;-37
2023/04/29 10:12:43;;;;;;;3.67;1.88;;;;;;;20.67;36.16;101936.88;16125566;19;129622;-38
2023/04/29 10:18:17;;;;;;;4.07;2.47;;;;;;;20.67;36.33;101931.31;16119625;19;130566;-37
2023/04/29 10:23:43;;;;;;;7.25;2.28;;;;;;;20.64;36.55;101938.19;16120232;19;130193;-38
2023/04/29 10:29:07;;;;;;;;;;;;;;;20.58;36.52;101942.75;16121841;19;131349;-36
2023/04/29 10:34:30;;;;;;;16.65;2.00;;;;;;;20.68;36.68;101933.84;16122494;19;129416;-37
2023/04/29 10:40:03;;;;;;;14.00;2.13;;;;;;;20.84;36.63;101940.72;16118676;19;130916;-37
2023/04/29 10:45:33;;;;;;;11.23;2.10;;;;;;;21.00;36.46;101936.41;16122195;19;129145;-37
2023/04/29 10:50:56;;;;;;;23.23;2.58;;;;;;;21.16;36.10;101940.44;16120097;19;130040;-37
2023/04/29 10:56:17;;;;;;;7.30;1.75;;;;;;;21.30;35.99;101945.75;16117767;19;129581;-38
2023/04/29 11:01:46;;;;;;;21.83;2.55;;;;;;;21.39;35.75;101944.34;16118966;19;130217;-37
2023/04/29 11:07:08;;;;;;;15.35;2.08;;;;;;;21.49;35.69;101939.06;16107511;19;129850;-37
2023/04/29 11:12:30;;;;;;;6.75;1.90;;;;;;;21.65;35.57;101947.78;16113374;19;130891;-38
2023/04/29 11:17:51;;;;;;;9.85;1.77;;;;;;;21.77;35.30;101947.75;16114007;19;130607;-39
2023/04/29 11:23:16;;;;;;;17.85;2.00;;;;;;;21.85;35.05;101946.56;16117355;19;130279;-38
2023/04/29 11:28:41;;;;;;;14.83;1.90;;;;;;;21.91;35.14;101940.03;16123771;19;130605;-49
2023/04/29 11:34:04;;;;;;;9.85;2.00;;;;;;;21.97;35.03;101947.38;16121421;19;130804;-38
2023/04/29 11:39:27;;;;;;;7.97;1.70;;;;;;;22.05;34.89;101948.94;16111023;19;130330;-40
2023/04/29 11:44:55;;;;;;;8.55;1.70;;;;;;;22.10;34.49;101949.91;16096173;19;130883;-38
2023/04/29 11:50:18;;;;;;;13.00;1.77;;;;;;;22.11;34.95;101951.59;16122808;19;129821;-38
2023/04/29 11:55:42;;;;;;;10.18;2.25;;;;;;;22.11;34.75;101950.75;16040944;19;129921;-37
2023/04/29 12:01:04;;;;;;;10.13;2.38;;;;;;;22.08;34.89;101943.72;16117222;19;129349;-38
2023/04/29 12:06:28;;;;;;;19.63;2.53;;;;;;;22.07;34.55;101939.25;16116088;19;129673;-38
2023/04/29 12:11:51;;;;;;;10.53;2.70;;;;;;;22.06;34.38;101933.94;16113795;19;130580;-38
2023/04/29 12:17:13;;;;;;;21.17;2.95;;;;;;;22.03;34.24;101938.03;16110474;19;131770;-37
2023/04/29 12:22:35;;;;;;;20.38;3.25;;;;;;;21.98;34.32;101940.72;16111073;19;130198;-39
2023/04/29 12:28:02;;;;;;;22.08;3.10;;;;;;;21.86;33.89;101943.50;16112931;19;130409;-38
2023/04/29 12:33:28;;;;;;;14.30;3.13;;;;;;;21.75;33.97;101939.66;16113091;19;129437;-37
2023/04/29 12:38:53;;;;;;;10.50;2.65;;;;;;;21.66;34.15;101955.06;16112285;19;131643;-38
2023/04/29 12:44:15;;;;;;;11.13;2.40;;;;;;;21.52;34.59;101958.06;16108371;19;130873;-38
2023/04/29 12:49:37;;;;;;;13.98;2.65;;;;;;;21.43;34.57;101951.09;16110001;19;129637;-38
2023/04/29 12:54:59;;;;;;;7.88;2.10;;;;;;;21.33;34.47;101939.72;16111503;19;129894;-38
2023/04/29 13:00:21;;;;;;;13.10;3.13;;;;;;;21.22;34.92;101939.47;16107374;19;129476;-38
2023/04/29 13:05:44;;;;;;;12.32;3.50;;;;;;;21.12;34.66;101942.00;16110479;19;130064;-38
2023/04/29 13:11:06;;;;;;;12.82;3.20;;;;;;;21.05;34.84;101955.16;16109631;19;131801;-39
2023/04/29 13:16:28;;;;;;;9.13;3.10;;;;;;;20.94;35.13;101951.28;16112161;19;133601;-38
2023/04/29 13:21:50;;;;;;;9.73;3.08;;;;;;;20.86;35.19;101949.66;16111612;19;130805;-38
2023/04/29 13:27:12;;;;;;;13.27;3.08;;;;;;;20.80;34.91;101961.72;16110863;19;129389;-38
2023/04/29 13:32:34;;;;;;;7.07;2.90;;;;;;;20.75;34.89;101958.78;16124145;19;129777;-38
2023/04/29 13:38:07;;;;;;;13.30;3.47;;;;;;;20.70;34.99;101967.84;16121938;19;131121;-39
2023/04/29 13:43:29;;;;;;;10.07;2.85;;;;;;;20.65;35.05;101961.28;16123733;19;129593;-39
2023/04/29 13:48:59;;;;;;;9.85;2.85;;;;;;;20.59;35.30;101960.28;16126961;19;130612;-38
2023/04/29 13:54:24;;;;;;;12.70;3.47;;;;;;;20.52;35.29;101963.16;16123812;19;129050;-38
2023/04/29 14:00:08;;;;;;;11.05;2.80;;;;;;;20.48;35.34;101967.50;16122778;19;131432;-39
2023/04/29 14:05:50;;;;;;;6.68;2.40;;;;;;;20.42;35.40;101965.66;16125445;19;130733;-38
2023/04/29 14:11:12;;;;;;;5.60;2.20;;;;;;;20.37;35.56;101971.88;16125011;19;130565;-39
2023/04/29 14:16:34;;;;;;;7.65;2.25;;;;;;;20.33;35.41;101967.91;16125753;19;129756;-38
2023/04/29 14:21:55;;;;;;;11.18;2.50;;;;;;;20.31;35.49;101977.56;16123494;19;129889;-38
2023/04/29 14:27:17;;;;;;;5.55;2.47;;;;;;;20.25;35.28;101971.84;16121646;19;130891;-38
2023/04/29 14:32:39;;;;;;;6.60;2.40;;;;;;;20.21;35.72;101966.97;16121849;19;129107;-38
2023/04/29 14:38:01;;;;;;;3.83;2.13;;;;;;;20.16;35.50;101976.00;16120475;19;129543;-38
2023/04/29 14:43:23;;;;;;;5.75;2.17;;;;;;;20.12;35.26;101974.75;16118747;19;130336;-38
2023/04/29 14:48:45;;;;;;;3.50;1.75;;;;;;;20.09;35.25;101980.78;16123525;19;130898;-39
2023/04/29 14:54:08;;;;;;;3.42;2.08;;;;;;;20.04;35.65;101978.69;16122569;19;130929;-38
2023/04/29 14:59:31;;;;;;;4.75;2.08;;;;;;;19.99;35.49;101982.16;16120619;19;131528;-42
2023/04/29 15:04:53;;;;;;;4.50;2.25;;;;;;;19.98;35.48;101980.44;16120266;19;134372;-38
2023/04/29 15:10:15;;;;;;;5.22;2.40;;;;;;;19.95;35.66;101996.72;16118053;19;130846;-38
2023/04/29 15:15:37;;;;;;;5.72;1.98;;;;;;;19.92;35.55;101983.28;16118968;19;130657;-39
2023/04/29 15:20:59;;;;;;;5.35;2.17;;;;;;;19.89;35.43;101987.38;16116851;19;131700;-38
2023/04/29 15:26:21;;;;;;;7.60;2.20;;;;;;;19.90;35.40;101985.44;16117489;19;129488;-39
2023/04/29 15:31:43;;;;;;;5.47;2.35;;;;;;;19.89;35.98;101987.38;16116503;19;130458;-38
2023/04/29 15:37:05;;;;;;;9.70;2.40;;;;;;;19.92;35.71;101986.91;16112987;19;130177;-38
2023/04/29 15:42:27;;;;;;;8.07;2.15;;;;;;;19.92;35.92;101986.06;16116862;19;130358;-39
2023/04/29 15:47:49;;;;;;;9.30;2.20;;;;;;;19.94;35.78;101984.72;16114537;19;129344;-40
2023/04/29 15:53:11;;;;;;;9.20;2.08;;;;;;;19.96;35.73;101992.84;16117453;19;129113;-38
2023/04/29 15:58:33;;;;;;;6.68;1.75;;;;;;;19.94;35.92;101984.72;16112405;19;131757;-38
2023/04/29 16:03:55;;;;;;;8.00;2.20;;;;;;;19.94;35.61;101995.84;16116081;19;129376;-40
2023/04/29 16:09:17;;;;;;;6.97;2.20;;;;;;;19.90;35.49;101996.53;16117632;19;129623;-38
2023/04/29 16:14:39;;;;;;;6.68;2.03;;;;;;;19.88;35.92;101985.66;16116794;19;130391;-38
2023/04/29 16:20:01;;;;;;;10.27;1.75;;;;;;;19.87;35.71;101986.75;16111401;19;130863;-41
2023/04/29 16:25:23;;;;;;;5.03;1.75;;;;;;;19.84;35.83;101990.84;16117312;19;129293;-45
2023/04/29 16:30:44;;;;;;;7.35;1.80;;;;;;;19.82;35.60;101987.44;16116022;19;129706;-49
2023/04/29 16:36:06;;;;;;;3.05;1.60;;;;;;;19.82;35.67;102003.22;16113664;19;129069;-45
2023/04/29 16:41:29;;;;;;;6.53;1.75;;;;;;;19.82;35.89;101998.53;16112117;19;130851;-42
2023/04/29 16:46:51;;;;;;;4.72;1.65;;;;;;;19.84;35.67;101995.53;16115219;19;130227;-44
2023/04/29 16:52:13;;;;;;;7.90;1.90;;;;;;;19.91;35.27;101990.78;16114362;19;130669;-43
2023/04/29 16:57:35;;;;;;;6.63;1.65;;;;;;;20.05;35.43;101990.66;16115771;19;131036;-46
2023/04/29 17:02:58;;;;;;;4.82;1.30;;;;;;;20.18;35.06;101990.53;16114757;19;130157;-48
2023/04/29 17:08:20;;;;;;;3.70;1.42;;;;;;;20.26;34.95;101981.88;16128307;19;129275;-45
2023/04/29 17:13:43;;;;;;;8.50;1.50;;;;;;;20.32;35.03;101985.66;16126757;19;130832;-46
2023/04/29 17:19:05;;;;;;;9.68;1.67;;;;;;;20.35;35.01;101992.66;16119654;19;131487;-43
2023/04/29 17:24:28;;;;;;;6.20;1.55;;;;;;;20.35;35.26;101989.88;16116244;19;131399;-46
2023/04/29 17:29:51;;;;;;;12.07;1.92;;;;;;;20.33;35.04;101984.56;16126339;19;130912;-48
2023/04/29 17:35:13;;;;;;;11.60;1.38;;;;;;;20.28;35.15;101996.38;16127003;19;130967;-40
2023/04/29 17:40:35;;;;;;;5.80;1.30;;;;;;;20.23;35.21;101987.88;16122161;19;129912;-49
2023/04/29 17:45:57;;;;;;;6.88;1.15;;;;;;;20.18;35.50;101984.09;16120844;19;129022;-39
2023/04/29 17:51:19;;;;;;;8.20;1.48;;;;;;;20.11;35.75;101986.94;16119392;19;129886;-44
2023/04/29 17:56:40;;;;;;;10.75;1.23;;;;;;;20.07;35.40;101992.13;16125880;19;129534;-41
2023/04/29 18:02:03;;;;;;;14.70;1.60;;;;;;;20.03;35.87;101987.25;16117684;19;130617;-40
2023/04/29 18:07:24;;;;;;;10.80;1.42;;;;;;;19.99;35.96;101987.72;16120956;19;130793;-46
2023/04/29 18:12:46;;;;;;;10.85;1.45;;;;;;;19.95;35.96;101992.00;16118570;19;129537;-50
2023/04/29 18:18:08;;;;;;;12.43;1.70;;;;;;;19.92;36.38;101986.06;16116705;19;130099;-41
2023/04/29 18:23:30;;;;;;;6.07;1.30;;;;;;;19.89;36.93;102006.81;16116798;19;129965;-40
2023/04/29 18:28:53;;;;;;;7.65;1.33;;;;;;;19.90;36.93;102005.72;16106252;19;131352;-38
2023/04/29 18:34:15;;;;;;;6.05;1.58;;;;;;;19.90;37.35;102008.50;16109115;19;129991;-47
2023/04/29 18:39:37;;;;;;;6.95;1.48;;;;;;;19.88;37.69;102010.66;16119463;19;130328;-38
2023/04/29 18:44:58;;;;;;;12.70;1.70;;;;;;;19.96;37.96;102017.84;16117349;19;129540;-40
2023/04/29 18:50:20;;;;;;;21.08;1.88;;;;;;;20.03;38.04;102012.25;16115880;19;130569;-39
2023/04/29 18:55:43;;;;;;;24.88;2.22;;;;;;;20.14;38.18;102023.44;16118157;19;130026;-38
2023/04/29 19:01:05;;;;;;;27.42;2.10;;;;;;;20.21;37.78;102017.00;16114176;19;130476;-39
2023/04/29 19:06:27;;;;;;;18.70;2.47;;;;;;;20.28;38.21;102024.16;16113556;19;130244;-39
2023/04/29 19:11:49;;;;;;;24.48;2.05;;;;;;;20.33;37.95;102034.59;16119176;19;131538;-38
2023/04/29 19:17:11;;;;;;;12.60;1.80;;;;;;;20.37;38.04;102040.53;16111582;19;131115;-42
2023/04/29 19:22:33;;;;;;;27.15;2.42;;;;;;;20.40;37.91;102046.47;16116380;19;134781;-38
2023/04/29 19:27:54;;;;;;;25.55;1.90;;;;;;;20.42;37.49;102054.59;16116406;19;130920;-38
2023/04/29 19:33:16;;;;;;;14.20;1.40;;;;;;;20.45;37.54;102068.88;16116005;19;130277;-39
2023/04/29 19:38:38;;;;;;;20.42;1.83;;;;;;;20.49;37.44;102062.88;16112192;19;129933;-39
2023/04/29 19:44:00;;;;;;;11.32;1.48;;;;;;;20.52;37.20;102067.94;16114714;19;129732;-38
2023/04/29 19:49:23;;;;;;;12.32;1.83;;;;;;;20.52;37.28;102063.25;16112221;19;130266;-39
2023/04/29 19:54:45;;;;;;;12.07;1.50;;;;;;;20.54;37.59;102058.31;16109731;19;130246;-39
2023/04/29 20:00:08;;;;;;;18.38;1.65;;;;;;;20.56;37.32;102064.47;16111090;19;129950;-39
2023/04/29 20:05:30;;;;;;;6.38;1.17;;;;;;;20.59;37.00;102075.13;16111812;19;130918;-38
2023/04/29 20:10:52;;;;;;;9.13;1.20;;;;;;;20.58;37.08;102081.75;16109658;19;131283;-38
2023/04/29 20:16:15;;;;;;;12.45;1.67;;;;;;;20.60;37.58;102082.38;16109003;19;130769;-38
2023/04/29 20:21:39;;;;;;;10.20;1.77;;;;;;;20.63;37.18;102085.78;16113196;19;129393;-38
2023/04/29 20:27:02;;;;;;;29.17;2.92;;;;;;;20.64;37.79;102095.84;16110374;19;129969;-39
2023/04/29 20:32:24;;;;;;;15.15;2.13;;;;;;;20.59;37.10;102096.53;16112468;19;131102;-38
2023/04/29 20:37:47;;;;;;;18.00;2.67;;;;;;;20.51;37.62;102094.91;16109945;19;130060;-38
2023/04/29 20:43:09;;;;;;;17.30;2.00;;;;;;;20.44;37.06;102105.22;16109351;19;130455;-39
2023/04/29 20:48:31;;;;;;;15.52;2.20;;;;;;;20.38;37.28;102108.94;16113170;19;130539;-47
2023/04/29 20:53:53;;;;;;;15.98;2.22;;;;;;;20.34;37.34;102116.03;16112323;19;130781;-47
2023/04/29 20:59:15;;;;;;;12.57;1.85;;;;;;;20.28;36.80;102109.44;16108827;19;129638;-47
2023/04/29 21:04:37;;;;;;;12.27;2.20;;;;;;;20.23;36.66;102114.88;16121845;19;129714;-47
2023/04/29 21:09:59;;;;;;;8.98;2.20;;;;;;;20.17;36.83;102119.41;16130674;19;129643;-49
2023/04/29 21:15:20;;;;;;;6.32;1.77;;;;;;;20.14;36.66;102119.84;16129221;19;129821;-52
2023/04/29 21:20:43;;;;;;;10.43;1.60;;;;;;;20.09;36.84;102130.78;16117959;19;129666;-47
2023/04/29 21:26:05;;;;;;;5.93;1.33;;;;;;;20.04;36.28;102130.63;16108157;19;133176;-47
2023/04/29 21:31:28;;;;;;;8.30;1.55;;;;;;;19.99;36.18;102136.84;16107297;19;130923;-48
2023/04/29 21:36:50;;;;;;;6.82;1.52;;;;;;;19.95;36.58;102135.59;16108052;19;130269;-38
2023/04/29 21:42:12;;;;;;;8.63;1.58;;;;;;;19.90;36.28;102132.63;16106045;19;129593;-38
2023/04/29 21:47:35;;;;;;;7.70;1.58;;;;;;;19.86;36.23;102143.34;16109262;19;131221;-38
2023/04/29 21:52:56;;;;;;;9.98;1.50;;;;;;;19.83;36.03;102132.66;16119064;19;129895;-38
2023/04/29 21:58:19;;;;;;;6.25;1.20;;;;;;;19.80;36.29;102139.53;16119829;19;129711;-38
2023/04/29 22:03:41;;;;;;;2.42;1.15;;;;;;;19.77;36.31;102148.31;16123997;19;131064;-39
2023/04/29 22:09:05;;;;;;;3.22;1.17;;;;;;;19.75;36.02;102144.06;16119088;19;129649;-37
2023/04/29 22:14:27;;;;;;;2.72;1.08;;;;;;;19.72;35.85;102147.28;16123036;19;129863;-38
2023/04/29 22:19:49;;;;;;;3.33;1.35;;;;;;;19.68;35.93;102153.28;16120410;19;131156;-38
2023/04/29 22:25:11;;;;;;;1.35;0.93;;;;;;;19.66;35.70;102168.47;16120602;19;129671;-38
2023/04/29 22:30:32;;;;;;;4.93;1.45;;;;;;;19.64;36.14;102171.47;16122217;19;135718;-38
2023/04/29 22:35:54;;;;;;;2.38;0.98;;;;;;;19.62;35.63;102175.53;16119473;19;129874;-39
2023/04/29 22:41:18;;;;;;;2.45;0.85;;;;;;;19.62;35.89;102170.00;16116995;19;131006;-38
2023/04/29 22:46:40;;;;;;;2.65;1.17;;;;;;;19.60;36.19;102178.53;16116717;19;129666;-38
2023/04/29 22:52:01;;;;;;;2.53;0.98;;;;;;;19.59;35.88;102171.28;16119625;19;129815;-38
2023/04/29 22:57:23;;;;;;;3.22;0.80;;;;;;;19.57;35.99;102176.19;16116332;19;130234;-39
2023/04/29 23:02:45;;;;;;;1.30;0.60;;;;;;;19.56;36.01;102173.66;16114519;19;130566;-38
2023/04/29 23:08:07;;;;;;;2.22;0.80;;;;;;;19.53;35.84;102184.13;16118603;19;129657;-38
2023/04/29 23:13:30;;;;;;;0.68;0.68;;;;;;;19.53;35.91;102177.72;16116263;19;131089;-38
2023/04/29 23:18:52;;;;;;;1.75;0.63;;;;;;;19.51;35.98;102183.47;16117162;19;133465;-38
2023/04/29 23:24:14;;;;;;;1.80;0.52;;;;;;;19.50;36.03;102183.72;16113341;19;129521;-38
2023/04/29 23:29:36;;;;;;;1.52;0.70;;;;;;;19.48;35.68;102183.94;16113690;19;132189;-38
2023/04/29 23:34:58;;;;;;;2.80;0.93;;;;;;;19.45;35.69;102189.94;16115355;19;130170;-40
2023/04/29 23:40:20;;;;;;;1.52;0.60;;;;;;;19.44;35.85;102188.22;16112068;19;129546;-38
2023/04/29 23:45:46;;;;;;;0.98;0.50;;;;;;;19.43;36.06;102194.84;16115600;19;130725;-38
2023/04/29 23:51:08;;;;;;;1.17;0.60;;;;;;;19.39;35.82;102193.56;16112865;19;135705;-39
2023/04/29 23:56:32;;;;;;;2.25;0.68;;;;;;;19.39;36.02;102190.81;16111518;19;130076;-38
